Flight Track Log - Related Links

Times and Time Zones

All times are in EDT time to prevent confusion due to time zone crossing. See the N368BE flight status page for this flight to view local times or setup timezone preferences in your user account.

Time Position Orientation Groundspeed Altitude Reporting Facility
EDT Latitude Longitude Course Direction KTS MPH feet Rate Location/Type
Wed 07:02:45 PM 44.5442 -105.5989 55° Northeast 257 296 11,500  Level Salt Lake Center
Wed 07:03:00 PM 44.6626 -104.9437 52° Northeast  Level FlightAware Approximate
Wed 07:03:47 PM 44.6211 -105.6208 349° North 283 326 14,300  Level Salt Lake Center
Wed 07:04:00 PM 44.7168 -104.8444 52° Northeast  Level FlightAware Approximate
Wed 07:04:48 PM 44.7147 -105.6344 354° North 305 351 17,200  Level Salt Lake Center
Wed 07:05:00 PM 44.7701 -104.7439 52° Northeast  Level FlightAware Approximate
Wed 07:05:50 PM 44.7967 -105.6456 355° North 305 351 19,800  Level Salt Lake Center
Wed 07:06:00 PM 44.8250 -104.6451 52° Northeast  Level FlightAware Approximate
Wed 07:06:52 PM 44.8786 -105.6583 354° North 300 345 23,100  Level Salt Lake Center
Wed 07:07:00 PM 44.8780 -104.5442 55° Northeast  Level FlightAware Approximate
Wed 07:07:54 PM 44.9558 -105.6667 356° North 285 328 25,200  Level Salt Lake Center
Wed 07:08:00 PM 44.9293 -104.4414 55° Northeast  Level FlightAware Approximate
Wed 07:08:56 PM 45.0564 -105.6736 357° North 300 345 28,000  Level Salt Lake Center
Wed 07:09:58 PM 45.1172 -105.5917 44° Northeast 322 371 30,200 2,032 Climbing Salt Lake Center
Wed 07:11:00 PM 45.1547 -105.4683 67° East 343 395 32,200 1,610 Climbing Salt Lake Center
Wed 07:12:01 PM 45.1917 -105.3425 67° East 344 396 33,500 1,171 Climbing Salt Lake Center
Wed 07:13:03 PM 45.2286 -105.2025 69° East 373 429 34,600 1,016 Climbing Salt Lake Center
Wed 07:14:05 PM 45.2686 -105.0583 68° East 389 448 35,600 1,065 Climbing Salt Lake Center
Wed 07:15:07 PM 45.3214 -104.8822 67° East 404 465 36,800 677 Climbing Salt Lake Center
Wed 07:16:09 PM 45.3706 -104.7325 65° Northeast 415 478 37,000 97 Climbing Salt Lake Center
Wed 07:17:11 PM 45.4325 -104.5778 60° Northeast 444 511 37,000  Level Salt Lake Center
Wed 07:18:13 PM 45.4950 -104.4067 62° Northeast 456 525 37,000  Level Salt Lake Center
Wed 07:19:15 PM 45.5553 -104.2444 62° Northeast 462 532 37,000  Level Salt Lake Center
Wed 07:20:17 PM 45.6150 -104.0828 62° Northeast 463 533 37,000  Level Salt Lake Center
Wed 07:21:19 PM 45.6753 -103.9217 62° Northeast 462 532 37,000  Level Salt Lake Center
Wed 07:22:21 PM 45.7344 -103.7586 62° Northeast 463 533 37,000  Level Salt Lake Center
Wed 07:23:22 PM 45.7944 -103.5956 62° Northeast 465 535 37,000  Level Salt Lake Center
Wed 07:24:24 PM 45.8650 -103.3983 63° Northeast 465 535 37,000  Level Salt Lake Center
Wed 07:25:31 PM 45.9256 -103.2344 62° Northeast 467 537 37,000  Level Minneapolis Center
Wed 07:26:33 PM 45.9836 -103.0703 63° Northeast 465 535 37,000  Level Minneapolis Center
Wed 07:27:35 PM 46.0425 -102.9036 63° Northeast 467 537 37,000 -97 Level Minneapolis Center
Wed 07:28:37 PM 46.1128 -102.7047 63° Northeast 467 537 36,800 -1,355 Descending Minneapolis Center
Wed 07:29:39 PM 46.1700 -102.5406 63° Northeast 463 533 34,200 -2,758 Descending Minneapolis Center
Wed 07:30:41 PM 46.2267 -102.3772 63° Northeast 461 531 31,100 -3,000 Descending Minneapolis Center
Wed 07:31:43 PM 46.2831 -102.2169 63° Northeast 454 522 28,000 -3,000 Descending Minneapolis Center
Wed 07:32:45 PM 46.3389 -102.0539 64° Northeast 453 521 24,900 -3,171 Descending Minneapolis Center
Wed 07:33:46 PM 46.4028 -101.8653 64° Northeast 448 516 21,500 -3,024 Descending Minneapolis Center
Wed 07:34:48 PM 46.4536 -101.7172 63° Northeast 435 501 18,700 -2,468 Descending Minneapolis Center
Wed 07:35:50 PM 46.5006 -101.5792 64° Northeast 418 481 16,400 -2,274 Descending Minneapolis Center
Wed 07:36:52 PM 46.5397 -101.4569 65° Northeast 386 444 14,000 -2,449 Descending Minneapolis Center
Wed 07:37:28 PM 46.5644 -101.3783 65° Northeast 346 398 12,400 -2,323 Descending Minneapolis Center
Wed 07:38:56 PM 46.6239 -101.1975 64° Northeast 336 387 9,200 -2,080 Descending Minneapolis Center
Wed 07:39:58 PM 46.6644 -101.0942 60° Northeast 292 336 7,200 -1,887 Descending Minneapolis Center
Wed 07:41:00 PM 46.7111 -100.9986 55° Northeast 285 328 5,300 -1,756 Descending Minneapolis Center
Wed 07:42:01 PM 46.7544 -100.9108 54° Northeast 268 308 3,600 -1,024 Descending Minneapolis Center
Wed 07:43:03 PM 46.7906 -100.8392 54° Northeast 219 252 3,200 -581 Descending Minneapolis Center
Wed 07:44:05 PM 46.8050 -100.7914 66° East 134 154 2,400 -677 Descending Minneapolis Center
Wed 07:45:07 PM 46.7872 -100.7650 135° Southeast 108 124 1,800 -339 Descending Minneapolis Center
Wed 07:46:09 PM 46.7642 -100.7322 136° Southeast 109 125 1,700 -97 Descending Minneapolis Center
Wed 07:48:00 PM 46.7667 -100.7333 90° East  Level FlightAware Approximate

Login

Don't have an account? Register now (free) for customized features, flight alerts, and more!